createdAt,value
2023-04-21T00:01:18.449Z,9.30
2023-04-21T00:03:52.100Z,9.20
2023-04-21T00:06:23.623Z,9.20
2023-04-21T00:08:55.006Z,9.20
2023-04-21T00:11:25.956Z,9.20
2023-04-21T00:13:57.016Z,9.20
2023-04-21T00:16:28.102Z,9.20
2023-04-21T00:19:07.246Z,9.30
2023-04-21T00:21:39.032Z,9.30
2023-04-21T00:24:11.642Z,9.50
2023-04-21T00:26:42.667Z,9.30
2023-04-21T00:29:13.657Z,9.30
2023-04-21T00:31:44.955Z,9.20
2023-04-21T00:34:18.565Z,9.20
2023-04-21T00:36:49.555Z,9.20
2023-04-21T00:39:20.596Z,9.20
2023-04-21T00:41:51.638Z,9.20
2023-04-21T00:44:22.650Z,9.30
2023-04-21T00:46:53.627Z,9.30
2023-04-21T00:49:28.281Z,9.40
2023-04-21T00:51:59.450Z,9.40
2023-04-21T00:54:31.341Z,9.40
2023-04-21T00:57:03.851Z,9.40
2023-04-21T00:59:34.940Z,9.40
2023-04-21T01:02:06.243Z,9.40
2023-04-21T01:04:40.395Z,9.40
2023-04-21T01:07:11.636Z,9.40
2023-04-21T01:09:42.555Z,9.40
2023-04-21T01:12:14.652Z,9.40
2023-04-21T01:14:46.028Z,9.50
2023-04-21T01:17:19.027Z,9.40
2023-04-21T01:19:54.553Z,9.40
2023-04-21T01:22:28.249Z,9.50
2023-04-21T01:24:59.191Z,9.50
2023-04-21T01:27:30.230Z,9.50
2023-04-21T01:30:03.981Z,9.50
2023-04-21T01:32:39.557Z,9.50
2023-04-21T01:35:11.488Z,9.50
2023-04-21T01:37:45.400Z,9.50
2023-04-21T01:40:16.679Z,9.50
2023-04-21T01:42:48.177Z,9.50
2023-04-21T01:45:19.270Z,9.50
2023-04-21T01:47:50.306Z,9.50
2023-04-21T01:50:21.422Z,9.50
2023-04-21T01:52:54.929Z,9.50
2023-04-21T01:55:26.487Z,9.40
2023-04-21T01:57:57.797Z,9.30
2023-04-21T02:00:28.839Z,9.40
2023-04-21T02:02:59.846Z,9.60
2023-04-21T02:05:30.992Z,9.30
2023-04-21T02:08:04.597Z,9.20
2023-04-21T02:10:38.557Z,9.20
2023-04-21T02:13:09.538Z,9.20
2023-04-21T02:15:41.600Z,9.10
2023-04-21T02:18:13.495Z,9.20
2023-04-21T02:20:44.455Z,9.20
2023-04-21T02:23:18.041Z,9.30
2023-04-21T02:25:49.036Z,9.20
2023-04-21T02:28:21.501Z,9.20
2023-04-21T02:30:52.523Z,9.20
2023-04-21T02:33:23.578Z,9.20
2023-04-21T02:35:54.566Z,9.20
2023-04-21T02:38:28.732Z,9.20
2023-04-21T02:40:59.873Z,9.30
2023-04-21T02:43:31.016Z,9.30
2023-04-21T02:46:01.946Z,9.30
2023-04-21T02:48:33.080Z,9.40
2023-04-21T02:51:04.552Z,9.90
2023-04-21T02:53:38.238Z,9.40
2023-04-21T02:56:10.709Z,9.40
2023-04-21T02:58:41.765Z,9.40
2023-04-21T03:01:12.744Z,9.40
2023-04-21T03:03:43.850Z,9.40
2023-04-21T03:06:14.904Z,9.40
2023-04-21T03:08:50.636Z,9.30
2023-04-21T03:11:21.567Z,9.40
2023-04-21T03:13:52.512Z,9.40
2023-04-21T03:16:23.565Z,9.30
2023-04-21T03:18:54.543Z,9.30
2023-04-21T03:21:25.551Z,9.80
2023-04-21T03:23:59.202Z,9.30
2023-04-21T03:26:30.117Z,9.30
2023-04-21T03:29:01.529Z,9.20
2023-04-21T03:31:32.608Z,9.20
2023-04-21T03:34:03.620Z,9.20
2023-04-21T03:36:35.220Z,9.30
2023-04-21T03:39:19.205Z,9.30
2023-04-21T03:41:51.552Z,9.30
2023-04-21T03:44:22.561Z,9.30
2023-04-21T03:46:55.718Z,9.30
2023-04-21T03:49:26.918Z,9.30
2023-04-21T03:51:57.862Z,9.30
2023-04-21T03:54:31.463Z,9.30
2023-04-21T03:57:04.173Z,9.30
2023-04-21T03:59:35.190Z,9.30
2023-04-21T04:02:06.485Z,9.30
2023-04-21T04:04:38.133Z,9.30
2023-04-21T04:07:10.233Z,9.40
2023-04-21T04:09:46.845Z,9.30
2023-04-21T04:12:17.861Z,9.40
2023-04-21T04:14:48.837Z,9.50
2023-04-21T04:17:19.897Z,9.50
2023-04-21T04:19:51.269Z,9.40
2023-04-21T04:22:22.265Z,9.50
2023-04-21T04:24:57.504Z,9.40
2023-04-21T04:27:28.551Z,9.50
2023-04-21T04:30:00.003Z,9.50
2023-04-21T04:32:31.646Z,9.60
2023-04-21T04:35:03.216Z,9.60
2023-04-21T04:37:34.981Z,9.60
2023-04-21T04:40:13.686Z,9.60
2023-04-21T04:42:46.268Z,9.70
2023-04-21T04:45:22.336Z,9.70
2023-04-21T04:47:53.492Z,9.60
2023-04-21T04:50:24.649Z,9.60
2023-04-21T04:52:56.526Z,9.50
2023-04-21T04:55:30.159Z,9.50
2023-04-21T04:58:02.081Z,9.50
2023-04-21T05:00:33.319Z,9.50
2023-04-21T05:03:04.480Z,9.40
2023-04-21T05:05:35.765Z,9.40
2023-04-21T05:08:06.730Z,9.50
2023-04-21T05:10:40.363Z,9.60
2023-04-21T05:13:11.446Z,9.60
2023-04-21T05:15:45.560Z,9.30
2023-04-21T05:18:16.545Z,9.60
2023-04-21T05:20:47.522Z,9.60
2023-04-21T05:23:18.779Z,9.60
2023-04-21T05:25:52.488Z,9.60
2023-04-21T05:28:23.572Z,9.60
2023-04-21T05:30:54.524Z,9.70
2023-04-21T05:33:26.951Z,9.70
2023-04-21T05:35:58.207Z,9.70
2023-04-21T05:38:30.043Z,9.80
2023-04-21T05:41:03.598Z,9.90
2023-04-21T05:43:35.495Z,9.90
2023-04-21T05:46:11.607Z,10.00
2023-04-21T05:48:43.086Z,10.00
2023-04-21T05:51:15.604Z,10.00
2023-04-21T05:53:47.890Z,10.10
2023-04-21T05:56:21.440Z,10.10
2023-04-21T05:58:55.101Z,10.10
2023-04-21T06:01:26.075Z,10.10
2023-04-21T06:03:57.149Z,10.10
2023-04-21T06:06:29.363Z,10.10
2023-04-21T06:09:00.400Z,10.20
2023-04-21T06:11:33.966Z,10.20
2023-04-21T06:14:04.860Z,10.30
2023-04-21T06:16:36.381Z,10.30
2023-04-21T06:19:07.382Z,10.30
2023-04-21T06:21:38.292Z,10.30
2023-04-21T06:24:12.859Z,10.40
2023-04-21T06:26:48.605Z,10.40
2023-04-21T06:29:20.758Z,10.50
2023-04-21T06:31:51.903Z,10.50
2023-04-21T06:34:31.724Z,10.70
2023-04-21T06:37:05.833Z,10.40
2023-04-21T06:39:36.849Z,10.40
2023-04-21T06:42:10.533Z,10.40
2023-04-21T06:44:41.765Z,10.50
2023-04-21T06:47:12.722Z,10.50
2023-04-21T06:49:43.753Z,10.50
2023-04-21T06:52:16.046Z,10.60
2023-04-21T06:54:48.463Z,10.50
2023-04-21T06:57:22.134Z,10.80
2023-04-21T06:59:53.511Z,10.60
2023-04-21T07:02:24.558Z,10.70
2023-04-21T07:04:58.487Z,10.80
2023-04-21T07:07:30.554Z,10.90
2023-04-21T07:10:01.751Z,11.00
2023-04-21T07:12:36.927Z,11.10
2023-04-21T07:15:09.978Z,11.50
2023-04-21T07:17:43.567Z,11.30
2023-04-21T07:20:15.553Z,11.50
2023-04-21T07:22:48.737Z,11.10
2023-04-21T07:25:22.827Z,11.50
2023-04-21T07:27:56.710Z,11.90
2023-04-21T07:30:27.912Z,11.60
2023-04-21T07:32:58.913Z,11.50
2023-04-21T07:35:29.915Z,11.40
2023-04-21T07:38:02.410Z,11.30
2023-04-21T07:40:46.574Z,11.20
2023-04-21T07:43:29.372Z,11.30
2023-04-21T07:46:00.884Z,11.40
2023-04-21T07:48:34.186Z,11.40
2023-04-21T07:51:05.261Z,11.40
2023-04-21T07:53:36.619Z,11.40
2023-04-21T07:56:07.716Z,11.20
2023-04-21T07:58:41.368Z,11.20
2023-04-21T08:01:19.197Z,11.30
2023-04-21T08:03:50.277Z,11.30
2023-04-21T08:06:21.707Z,11.70
2023-04-21T08:08:54.521Z,11.40
2023-04-21T08:11:28.776Z,11.50
2023-04-21T08:14:02.350Z,11.50
2023-04-21T08:16:33.500Z,11.50
2023-04-21T08:19:04.530Z,11.40
2023-04-21T08:21:36.267Z,11.40
2023-04-21T08:24:07.836Z,11.50
2023-04-21T08:26:40.247Z,11.70
2023-04-21T08:29:14.280Z,11.70
2023-04-21T08:31:45.344Z,11.70
2023-04-21T08:34:16.351Z,12.00
2023-04-21T08:36:47.627Z,12.10
2023-04-21T08:39:23.966Z,12.10
2023-04-21T08:41:57.765Z,12.20
2023-04-21T08:44:32.048Z,12.10
2023-04-21T08:47:04.045Z,12.10
2023-04-21T08:49:39.766Z,12.10
2023-04-21T08:52:11.116Z,12.00
2023-04-21T08:54:43.410Z,12.30
2023-04-21T08:57:16.119Z,12.00
2023-04-21T08:59:50.318Z,11.90
2023-04-21T09:02:22.502Z,12.00
2023-04-21T09:04:55.275Z,12.10
2023-04-21T09:07:41.575Z,12.10
2023-04-21T09:10:12.829Z,12.60
2023-04-21T09:12:43.833Z,12.30
2023-04-21T09:15:17.596Z,12.40
2023-04-21T09:17:49.558Z,12.60
2023-04-21T09:20:23.105Z,12.50
2023-04-21T09:22:55.549Z,12.60
2023-04-21T09:25:26.725Z,12.80
2023-04-21T09:27:59.504Z,12.90
2023-04-21T09:30:34.411Z,12.90
2023-04-21T09:33:13.409Z,12.90
2023-04-21T09:35:51.436Z,12.80
2023-04-21T09:38:25.781Z,12.80
2023-04-21T09:41:03.200Z,12.70
2023-04-21T09:43:34.488Z,12.70
2023-04-21T09:46:08.545Z,12.90
2023-04-21T09:48:40.903Z,13.00
2023-04-21T09:51:28.719Z,13.10
2023-04-21T09:54:22.112Z,13.00
2023-04-21T09:57:02.529Z,13.00
2023-04-21T09:59:37.716Z,13.00
2023-04-21T10:02:12.770Z,13.00
2023-04-21T10:04:46.903Z,13.00
2023-04-21T10:07:18.059Z,13.10
2023-04-21T10:10:02.941Z,13.10
2023-04-21T10:12:36.226Z,13.30
2023-04-21T10:15:08.959Z,13.50
2023-04-21T10:17:42.632Z,13.60
2023-04-21T10:20:18.803Z,13.60
2023-04-21T10:23:00.436Z,13.90
2023-04-21T10:25:33.063Z,14.10
2023-04-21T10:28:03.213Z,14.20
2023-04-21T10:30:34.447Z,14.30
2023-04-21T10:33:08.958Z,14.50
2023-04-21T10:36:01.697Z,14.50
2023-04-21T10:38:37.756Z,14.60
2023-04-21T10:41:30.487Z,14.70
2023-04-21T10:44:02.092Z,14.80
2023-04-21T10:46:39.863Z,15.00
2023-04-21T10:49:15.814Z,15.10
2023-04-21T10:52:09.378Z,14.90
2023-04-21T10:54:46.253Z,14.90
2023-04-21T10:57:18.874Z,14.80
2023-04-21T10:59:51.007Z,14.80
2023-04-21T11:02:22.467Z,14.70
2023-04-21T11:04:57.476Z,14.50
2023-04-21T11:07:29.145Z,14.50
2023-04-21T11:10:01.716Z,14.50
2023-04-21T11:12:34.828Z,14.40
2023-04-21T11:15:10.140Z,14.30
2023-04-21T11:17:43.967Z,14.30
2023-04-21T11:20:17.728Z,14.30
2023-04-21T11:22:48.659Z,14.30
2023-04-21T11:25:22.728Z,14.30
2023-04-21T11:28:01.451Z,14.40
2023-04-21T11:30:36.403Z,14.50
2023-04-21T11:33:10.369Z,15.10
2023-04-21T11:35:49.876Z,14.80
2023-04-21T11:38:20.908Z,14.80
2023-04-21T11:40:55.234Z,14.90
2023-04-21T11:43:26.415Z,15.00
2023-04-21T11:45:57.344Z,15.10
2023-04-21T11:48:35.411Z,15.20
2023-04-21T11:51:09.439Z,15.10
2023-04-21T11:53:41.171Z,15.30
2023-04-21T11:56:13.847Z,15.30
2023-04-21T11:58:46.450Z,15.40
2023-04-21T12:01:18.860Z,15.50
2023-04-21T12:03:57.417Z,15.50
2023-04-21T12:06:31.494Z,15.50
2023-04-21T12:09:04.610Z,15.70
2023-04-21T12:11:36.215Z,15.80
2023-04-21T12:14:07.099Z,16.10
2023-04-21T12:16:40.851Z,15.90
2023-04-21T12:19:15.022Z,15.90
2023-04-21T12:21:51.606Z,16.10
2023-04-21T12:24:22.637Z,16.00
2023-04-21T12:26:53.689Z,16.10
2023-04-21T12:29:24.599Z,16.00
2023-04-21T12:31:55.599Z,16.30
2023-04-21T12:34:26.825Z,16.20
2023-04-21T12:37:01.122Z,16.10
2023-04-21T12:40:01.418Z,16.10
2023-04-21T12:42:57.516Z,16.20
2023-04-21T12:45:28.917Z,16.20
2023-04-21T12:48:00.057Z,16.30
2023-04-21T12:50:34.317Z,16.40
2023-04-21T12:53:07.855Z,16.50
2023-04-21T12:55:39.170Z,17.00
2023-04-21T12:58:15.866Z,16.60
2023-04-21T13:00:46.882Z,16.60
2023-04-21T13:03:21.065Z,16.90
2023-04-21T13:05:52.288Z,17.00
2023-04-21T13:08:26.975Z,16.90
2023-04-21T13:10:58.305Z,17.40
2023-04-21T13:13:32.223Z,17.00
2023-04-21T13:16:03.709Z,17.00
2023-04-21T13:18:35.033Z,17.20
2023-04-21T13:21:06.391Z,17.40
2023-04-21T13:23:40.160Z,17.30
2023-04-21T13:26:11.618Z,17.30
2023-04-21T13:28:43.024Z,17.40
2023-04-21T13:31:16.670Z,17.50
2023-04-21T13:33:47.780Z,17.40
2023-04-21T13:36:18.809Z,17.40
2023-04-21T13:38:54.067Z,17.60
2023-04-21T13:41:26.211Z,17.70
2023-04-21T13:43:57.264Z,17.40
2023-04-21T13:46:28.357Z,17.60
2023-04-21T13:48:59.613Z,17.60
2023-04-21T13:51:32.327Z,17.70
2023-04-21T13:54:05.821Z,17.80
2023-04-21T13:56:36.890Z,17.80
2023-04-21T13:59:10.998Z,17.70
2023-04-21T14:01:42.097Z,17.80
2023-04-21T14:04:15.915Z,17.80
2023-04-21T14:06:47.144Z,17.90
2023-04-21T14:09:21.176Z,18.00
2023-04-21T14:11:52.075Z,17.70
2023-04-21T14:14:37.341Z,17.70
2023-04-21T14:17:10.151Z,17.80
2023-04-21T14:19:41.091Z,18.00
2023-04-21T14:22:13.266Z,18.20
2023-04-21T14:24:47.174Z,18.30
2023-04-21T14:27:18.692Z,18.30
2023-04-21T14:29:49.758Z,18.50
2023-04-21T14:32:21.925Z,18.50
2023-04-21T14:34:54.480Z,18.60
2023-04-21T14:37:25.660Z,18.50
2023-04-21T14:43:11.527Z,18.90
2023-04-21T14:45:43.866Z,19.00
2023-04-21T14:48:15.578Z,19.10
2023-04-21T14:51:19.279Z,19.30
2023-04-21T14:57:47.255Z,19.10
2023-04-21T15:00:23.423Z,19.00
2023-04-21T15:02:54.831Z,18.80
2023-04-21T15:05:25.921Z,18.70
2023-04-21T15:07:57.034Z,18.70
2023-04-21T15:10:29.911Z,18.50
2023-04-21T15:13:03.438Z,18.30
2023-04-21T15:15:34.488Z,18.30
2023-04-21T15:18:08.698Z,18.40
2023-04-21T15:20:45.366Z,18.10
2023-04-21T15:23:17.546Z,18.10
2023-04-21T15:25:48.674Z,18.00
2023-04-21T15:28:22.290Z,18.00
2023-04-21T15:30:53.924Z,18.00
2023-04-21T15:33:24.930Z,17.90
2023-04-21T15:35:56.018Z,17.80
2023-04-21T15:38:27.086Z,17.70
2023-04-21T15:41:03.980Z,17.80
2023-04-21T15:43:47.708Z,17.80
2023-04-21T15:46:18.876Z,18.10
2023-04-21T15:48:49.932Z,17.80
2023-04-21T15:51:21.943Z,17.90
2023-04-21T15:53:53.081Z,18.00
2023-04-21T15:56:26.587Z,17.90
2023-04-21T15:59:00.170Z,18.10
2023-04-21T16:01:31.579Z,18.10
2023-04-21T16:04:03.625Z,18.20
2023-04-21T16:09:07.195Z,18.30
2023-04-21T16:11:38.169Z,18.20
2023-04-21T16:14:16.542Z,18.20
2023-04-21T16:16:47.962Z,18.10
2023-04-21T16:19:18.923Z,18.00
2023-04-21T16:21:50.252Z,18.00
2023-04-21T16:24:21.619Z,18.00
2023-04-21T16:26:52.708Z,18.00
2023-04-21T16:29:26.502Z,18.00
2023-04-21T16:31:57.638Z,18.20
2023-04-21T16:34:28.640Z,18.00
2023-04-21T16:36:59.607Z,18.00
2023-04-21T16:39:30.626Z,18.00
2023-04-21T16:42:02.362Z,18.10
2023-04-21T16:44:36.377Z,18.10
2023-04-21T16:47:07.931Z,18.00
2023-04-21T16:49:39.111Z,18.00
2023-04-21T16:52:11.301Z,18.00
2023-04-21T16:54:42.257Z,18.00
2023-04-21T16:57:13.375Z,18.20
2023-04-21T16:59:46.943Z,18.10
2023-04-21T17:02:29.876Z,18.10
2023-04-21T17:05:01.002Z,18.10
2023-04-21T17:07:34.498Z,18.00
2023-04-21T17:10:09.954Z,18.20
2023-04-21T17:12:41.327Z,18.20
2023-04-21T17:15:17.660Z,18.20
2023-04-21T17:17:49.960Z,18.50
2023-04-21T17:20:36.882Z,18.40
2023-04-21T17:23:12.360Z,18.00
2023-04-21T17:25:45.111Z,17.80
2023-04-21T17:28:16.849Z,17.70
2023-04-21T17:30:57.607Z,17.70
2023-04-21T17:33:38.619Z,17.60
2023-04-21T17:36:10.101Z,17.60
2023-04-21T17:38:43.026Z,17.50
2023-04-21T17:41:14.300Z,17.30
2023-04-21T17:43:45.251Z,17.20
2023-04-21T17:46:18.971Z,17.10
2023-04-21T17:48:53.091Z,17.10
2023-04-21T17:51:24.820Z,16.90
2023-04-21T17:53:55.843Z,16.90
2023-04-21T17:56:26.785Z,16.80
2023-04-21T17:58:57.864Z,16.60
2023-04-21T18:01:31.579Z,16.50
2023-04-21T18:04:02.814Z,16.40
2023-04-21T18:06:34.214Z,16.40
2023-04-21T18:09:06.576Z,16.30
2023-04-21T18:11:41.810Z,16.10
2023-04-21T18:14:13.368Z,16.10
2023-04-21T18:16:46.874Z,16.00
2023-04-21T18:19:18.607Z,15.90
2023-04-21T18:21:51.025Z,15.80
2023-04-21T18:24:22.284Z,15.70
2023-04-21T18:26:54.047Z,15.60
2023-04-21T18:29:25.703Z,15.50
2023-04-21T18:31:59.406Z,15.50
2023-04-21T18:34:30.474Z,15.40
2023-04-21T18:37:01.512Z,15.30
2023-04-21T18:39:32.390Z,15.20
2023-04-21T18:42:03.461Z,15.20
2023-04-21T18:44:34.680Z,15.00
2023-04-21T18:47:08.522Z,15.00
2023-04-21T18:49:40.925Z,14.90
2023-04-21T18:52:12.063Z,14.80
2023-04-21T18:54:44.264Z,14.60
2023-04-21T18:57:16.211Z,14.50
2023-04-21T18:59:47.078Z,14.40
2023-04-21T19:02:21.039Z,14.30
2023-04-21T19:04:54.746Z,14.20
2023-04-21T19:07:29.643Z,14.00
2023-04-21T19:10:00.854Z,14.00
2023-04-21T19:12:31.779Z,13.80
2023-04-21T19:15:02.713Z,13.80
2023-04-21T19:17:36.624Z,13.70
2023-04-21T19:20:08.660Z,13.70
2023-04-21T19:22:42.603Z,13.70
2023-04-21T19:25:13.858Z,13.60
2023-04-21T19:27:46.433Z,14.00
2023-04-21T19:30:17.797Z,13.50
2023-04-21T19:32:51.525Z,13.40
2023-04-21T19:35:22.758Z,13.30
2023-04-21T19:37:54.022Z,13.20
2023-04-21T19:40:25.058Z,13.20
2023-04-21T19:42:58.659Z,13.10
2023-04-21T19:45:29.580Z,13.10
2023-04-21T19:48:04.601Z,13.10
2023-04-21T19:50:35.951Z,13.10
2023-04-21T19:53:07.180Z,13.10
2023-04-21T19:55:38.184Z,13.10
2023-04-21T19:58:09.329Z,13.10
2023-04-21T20:00:43.415Z,13.00
2023-04-21T20:03:17.079Z,12.90
2023-04-21T20:05:49.728Z,13.30
2023-04-21T20:08:20.823Z,13.00
2023-04-21T20:10:51.782Z,13.00
2023-04-21T20:13:25.853Z,13.00
2023-04-21T20:15:57.225Z,12.70
2023-04-21T20:18:31.934Z,13.10
2023-04-21T20:21:03.037Z,13.20
2023-04-21T20:23:34.028Z,13.20
2023-04-21T20:26:05.031Z,13.30
2023-04-21T20:28:36.622Z,13.40
2023-04-21T20:31:10.808Z,13.50
2023-04-21T20:33:44.462Z,13.50
2023-04-21T20:36:18.541Z,13.30
2023-04-21T20:38:50.767Z,13.50
2023-04-21T20:41:23.480Z,13.50
2023-04-21T20:43:56.388Z,13.70
2023-04-21T20:46:27.561Z,13.40
2023-04-21T20:49:01.194Z,13.40
2023-04-21T20:51:32.820Z,13.40
2023-04-21T20:54:04.238Z,13.50
2023-04-21T20:56:35.179Z,13.40
2023-04-21T20:59:06.444Z,13.50
2023-04-21T21:01:39.959Z,13.60
2023-04-21T21:04:13.984Z,13.60
2023-04-21T21:06:48.329Z,13.50
2023-04-21T21:09:22.138Z,13.40
2023-04-21T21:11:54.996Z,13.40
2023-04-21T21:14:26.346Z,13.40
2023-04-21T21:17:01.558Z,13.30
2023-04-21T21:19:35.441Z,13.30
2023-04-21T21:22:09.463Z,13.20
2023-04-21T21:24:40.438Z,13.10
2023-04-21T21:27:11.635Z,13.00
2023-04-21T21:29:44.948Z,13.00
2023-04-21T21:32:18.513Z,12.90
2023-04-21T21:34:52.474Z,12.80
2023-04-21T21:37:24.552Z,12.70
2023-04-21T21:39:55.536Z,12.60
2023-04-21T21:42:26.563Z,12.60
2023-04-21T21:44:57.398Z,12.30
2023-04-21T21:47:28.496Z,12.30
2023-04-21T21:50:02.366Z,12.30
2023-04-21T21:52:33.357Z,12.70
2023-04-21T21:55:04.291Z,12.50
2023-04-21T21:57:35.249Z,12.20
2023-04-21T22:00:12.734Z,12.20
2023-04-21T22:02:47.112Z,12.30
2023-04-21T22:05:24.012Z,12.30
2023-04-21T22:07:57.027Z,12.30
2023-04-21T22:10:28.336Z,12.20
2023-04-21T22:12:59.288Z,12.20
2023-04-21T22:15:30.461Z,12.20
2023-04-21T22:18:01.477Z,12.20
2023-04-21T22:20:35.094Z,12.20
2023-04-21T22:23:06.905Z,12.10
2023-04-21T22:25:39.157Z,11.90
2023-04-21T22:28:11.058Z,11.90
2023-04-21T22:30:43.980Z,11.90
2023-04-21T22:33:18.503Z,11.80
2023-04-21T22:35:51.987Z,11.70
2023-04-21T22:38:22.979Z,11.70
2023-04-21T22:40:53.920Z,11.70
2023-04-21T22:43:24.967Z,11.50
2023-04-21T22:45:55.972Z,11.50
2023-04-21T22:48:28.297Z,11.40
2023-04-21T22:51:05.099Z,11.30
2023-04-21T22:53:36.451Z,11.60
2023-04-21T22:56:07.992Z,11.20
2023-04-21T22:58:51.312Z,11.10
2023-04-21T23:01:22.298Z,11.00
2023-04-21T23:03:53.599Z,11.00
2023-04-21T23:06:28.449Z,10.90
2023-04-21T23:09:02.141Z,10.80
2023-04-21T23:11:33.085Z,10.80
2023-04-21T23:14:04.135Z,10.70
2023-04-21T23:16:37.901Z,10.60
2023-04-21T23:19:09.092Z,10.60
2023-04-21T23:21:43.030Z,10.50
2023-04-21T23:24:14.441Z,10.50
2023-04-21T23:26:45.644Z,10.40
2023-04-21T23:29:17.168Z,10.40
2023-04-21T23:31:48.340Z,10.40
2023-04-21T23:34:19.295Z,10.30
2023-04-21T23:36:52.742Z,10.20
2023-04-21T23:39:24.179Z,10.10
2023-04-21T23:41:55.173Z,10.20
2023-04-21T23:44:26.306Z,10.10
2023-04-21T23:46:57.268Z,10.00
2023-04-21T23:49:28.221Z,10.10
2023-04-21T23:52:01.920Z,10.10
2023-04-21T23:54:32.843Z,10.00
2023-04-21T23:57:04.010Z,10.00
2023-04-21T23:59:34.944Z,10.00
